Time;durP1;ratioP1;P1;durP2;ratioP2;P2;SDS_P1;SDS_P2;PMS_P1;PMS_P2;Temp;Humidity;BMP_temperature;BMP_pressure;BME280_temperature;BME280_humidity;BME280_pressure;Samples;Min_cycle;Max_cycle;Signal;HPM_P1;HPM_P2
2022/09/09 00:00:16;;;;;;;1.80;1.70;;;14.90;99.90;;;-141.84;79.69;19135.09;5093400;28;20224;-67
2022/09/09 00:02:55;;;;;;;3.70;1.90;;;14.80;99.90;;;-141.84;79.51;19082.25;5092777;28;20215;-67
2022/09/09 00:05:38;;;;;;;2.22;2.03;;;14.80;99.90;;;-141.84;80.01;19082.25;5092619;28;20332;-67
2022/09/09 00:08:19;;;;;;;2.03;1.80;;;14.80;99.90;;;-141.84;80.45;19102.56;5092813;28;20231;-67
2022/09/09 00:10:59;;;;;;;2.40;2.05;;;14.80;99.90;;;-141.84;79.84;19106.66;5072593;28;20224;-67
2022/09/09 00:13:38;;;;;;;3.90;2.00;;;14.80;99.90;;;-141.84;80.02;19096.47;5072526;28;20224;-67
2022/09/09 00:16:16;;;;;;;5.35;2.10;;;14.70;99.90;;;-141.84;79.74;19096.47;5072326;28;20231;-67
2022/09/09 00:19:02;;;;;;;2.53;1.98;;;14.80;99.90;;;-141.84;80.05;19066.00;5072172;28;20636;-67
2022/09/09 00:21:36;;;;;;;2.30;2.10;;;14.70;99.90;;;-141.84;80.46;19086.31;5072915;28;20185;-68
2022/09/09 00:24:27;;;;;;;2.42;2.08;;;14.70;99.90;;;-141.84;80.56;19063.97;5072357;28;20684;-67
2022/09/09 00:27:05;;;;;;;3.63;2.05;;;14.70;99.90;;;-141.84;80.80;19100.53;5074315;28;20233;-67
2022/09/09 00:29:44;;;;;;;5.22;2.03;;;14.70;99.90;;;-141.84;81.73;19051.78;5092196;28;20231;-68
2022/09/09 00:32:16;;;;;;;2.17;1.98;;;14.60;99.90;;;-141.84;81.22;19086.31;5092429;28;20227;-67
2022/09/09 00:34:52;;;;;;;2.20;2.00;;;14.60;99.90;;;-141.84;81.26;19049.75;5092302;28;20246;-66
2022/09/09 00:37:23;;;;;;;2.72;2.17;;;14.60;99.90;;;-141.84;80.66;19035.53;5092464;28;20223;-69
2022/09/09 00:39:56;;;;;;;4.30;2.38;;;14.60;99.90;;;-141.84;79.98;19057.88;5092159;28;20227;-68
2022/09/09 00:42:33;;;;;;;2.30;2.10;;;14.60;99.90;;;-141.84;80.21;19063.97;5092734;28;20250;-68
2022/09/09 00:45:35;;;;;;;3.78;2.10;;;14.60;99.90;;;-141.84;79.86;19082.25;5091888;28;20234;-69
2022/09/09 00:48:12;;;;;;;2.33;1.92;;;14.60;99.90;;;-141.84;80.23;19066.00;5092340;28;20320;-68
2022/09/09 00:50:55;;;;;;;3.40;2.45;;;14.60;99.90;;;-141.84;80.33;19066.00;5092040;28;20254;-68
2022/09/09 00:53:39;;;;;;;4.60;2.20;;;14.60;99.90;;;-141.84;79.24;19102.56;5091933;28;20224;-68
2022/09/09 00:56:18;;;;;;;3.70;2.03;;;14.60;99.90;;;-141.84;79.46;19080.22;5091919;28;20232;-66
2022/09/09 00:59:04;;;;;;;1.90;1.80;;;14.60;99.90;;;-141.84;80.15;19057.88;5091674;28;20231;-68
2022/09/09 01:01:33;;;;;;;4.22;2.08;;;14.50;99.90;;;-141.84;80.37;19072.09;5091627;28;20273;-67
2022/09/09 01:04:05;;;;;;;4.10;2.47;;;14.50;99.90;;;-141.84;80.81;19068.03;5091835;28;20571;-67
2022/09/09 01:06:38;;;;;;;3.03;1.95;;;14.50;99.90;;;-141.84;80.60;19039.59;5091338;28;20558;-67
2022/09/09 01:09:19;;;;;;;2.00;1.80;;;14.50;99.90;;;-141.84;80.04;19078.19;5092065;28;20227;-68
2022/09/09 01:12:03;;;;;;;3.38;2.00;;;14.60;99.90;;;-141.84;79.17;19090.38;5091480;28;20227;-69
2022/09/09 01:14:44;;;;;;;2.55;2.13;;;14.60;99.90;;;-141.84;78.48;19112.75;5091532;28;20223;-67
2022/09/09 01:17:19;;;;;;;2.65;1.73;;;14.60;99.90;;;-141.84;79.18;19063.97;5091342;28;20224;-66
2022/09/09 01:20:04;;;;;;;4.13;2.00;;;14.60;99.90;;;-141.84;79.74;19090.38;5091353;28;20230;-69
2022/09/09 01:22:42;;;;;;;5.32;2.10;;;14.60;99.90;;;-141.84;79.03;19055.84;5091142;28;20736;-67
2022/09/09 01:25:27;;;;;;;3.45;2.10;;;14.60;99.90;;;-141.84;78.92;19100.53;5091182;28;20227;-67
2022/09/09 01:28:01;;;;;;;2.38;1.90;;;14.50;99.90;;;-141.84;78.19;19080.22;5091151;28;20611;-68
2022/09/09 01:30:29;;;;;;;3.40;2.00;;;14.60;99.90;;;-141.84;78.20;19114.78;5091987;28;20181;-68
2022/09/09 01:33:00;;;;;;;4.03;1.85;;;14.60;99.90;;;-141.84;79.03;19078.19;5091109;28;20705;-67
2022/09/09 01:35:47;;;;;;;3.15;2.10;;;14.60;99.90;;;-141.84;79.41;19094.44;5091279;28;20240;-68
2022/09/09 01:38:16;;;;;;;3.03;2.13;;;14.60;99.90;;;-141.84;80.12;19053.81;5091273;28;20223;-68
2022/09/09 01:40:44;;;;;;;2.40;2.20;;;14.60;99.90;;;-141.84;79.72;19092.41;5091018;28;20227;-66
2022/09/09 01:43:14;;;;;;;3.45;1.95;;;14.60;99.90;;;-141.84;79.63;19096.47;5091173;28;20563;-67
2022/09/09 01:45:47;;;;;;;3.42;1.88;;;14.60;99.90;;;-141.84;78.72;19112.75;5091294;28;20547;-67
2022/09/09 01:48:16;;;;;;;2.08;1.88;;;14.60;99.90;;;-141.84;78.65;19114.78;5091779;28;20279;-67
2022/09/09 01:50:44;;;;;;;4.65;2.00;;;14.70;99.90;;;-141.84;79.18;19100.53;5090996;28;20630;-68
2022/09/09 01:53:15;;;;;;;3.53;2.10;;;14.60;99.90;;;-141.84;78.21;19096.47;5091133;28;20606;-68
2022/09/09 01:55:57;;;;;;;3.17;2.10;;;14.60;99.90;;;-141.84;77.69;19114.78;5091121;28;20230;-67
2022/09/09 01:58:39;;;;;;;2.72;2.08;;;14.70;99.90;;;-141.84;77.97;19118.84;5090974;28;20219;-66
2022/09/09 02:01:23;;;;;;;4.72;2.00;;;14.70;99.90;;;-141.84;79.12;19167.59;5090985;28;20227;-67
2022/09/09 02:03:56;;;;;;;3.83;1.92;;;14.60;99.90;;;-141.84;79.53;19104.59;5091105;28;20287;-69
2022/09/09 02:06:34;;;;;;;4.25;1.90;;;14.60;99.90;;;-141.84;77.58;19114.78;5091571;28;20184;-67
2022/09/09 02:09:07;;;;;;;3.55;2.25;;;14.70;99.90;;;-141.84;78.08;19114.78;5090828;28;20707;-67
2022/09/09 02:11:36;;;;;;;2.30;2.10;;;14.70;99.90;;;-141.84;77.53;19126.97;5090867;28;20726;-67
2022/09/09 02:14:13;;;;;;;2.78;1.83;;;14.70;99.90;;;-141.84;78.04;19096.47;5090531;28;20227;-68
2022/09/09 02:16:51;;;;;;;3.13;1.90;;;14.70;99.90;;;-141.84;78.89;19082.25;5091834;28;20224;-68
2022/09/09 02:19:26;;;;;;;6.03;2.20;;;14.60;99.90;;;-141.84;77.78;19114.78;5094564;28;20253;-67
2022/09/09 02:21:59;;;;;;;2.42;2.00;;;14.60;99.90;;;-141.84;78.60;19098.50;5094859;28;20211;-67
2022/09/09 02:24:33;;;;;;;3.13;1.90;;;14.60;99.90;;;-141.84;79.01;19114.78;5095215;28;20208;-66
2022/09/09 02:27:08;;;;;;;3.13;2.38;;;14.50;99.90;;;-141.84;78.99;19094.44;5094545;28;20223;-67
2022/09/09 02:29:42;;;;;;;3.78;1.55;;;14.50;99.90;;;-141.84;79.19;19114.78;5094739;28;20794;-67
2022/09/09 02:32:15;;;;;;;3.53;2.17;;;14.50;99.90;;;-141.84;79.54;19053.81;5094398;28;20273;-67
2022/09/09 02:34:48;;;;;;;2.78;1.95;;;14.50;99.90;;;-141.84;79.40;19114.78;5094747;28;20220;-67
2022/09/09 02:37:21;;;;;;;3.45;2.00;;;14.40;99.90;;;-141.84;78.27;19110.72;5094680;28;20220;-68
2022/09/09 02:39:49;;;;;;;2.30;2.08;;;14.50;99.90;;;-141.84;78.76;19084.28;5094534;28;20216;-67
2022/09/09 02:42:18;;;;;;;2.25;2.03;;;14.50;99.90;;;-141.84;78.50;19094.44;5094654;28;20204;-67
2022/09/09 02:44:48;;;;;;;2.28;1.80;;;14.60;99.90;;;-141.84;77.83;19066.00;5094515;28;20231;-67
2022/09/09 02:47:31;;;;;;;3.88;2.35;;;14.50;99.90;;;-141.84;77.78;19086.31;5094009;28;20772;-66
2022/09/09 02:50:12;;;;;;;3.83;2.00;;;14.50;99.90;;;-141.84;76.56;19151.34;5094346;28;20271;-68
2022/09/09 02:52:58;;;;;;;2.65;1.80;;;14.50;99.90;;;-141.84;76.64;19114.78;5094392;28;20227;-67
2022/09/09 02:55:39;;;;;;;4.10;1.90;;;14.50;99.90;;;-141.84;77.71;19074.13;5094360;28;20230;-69
2022/09/09 02:58:11;;;;;;;2.50;2.30;;;14.50;99.90;;;-141.84;77.24;19084.28;5093985;28;20228;-67
2022/09/09 03:00:41;;;;;;;2.83;1.83;;;14.40;99.90;;;-141.84;78.20;19080.22;5094481;28;20212;-67
2022/09/09 03:03:10;;;;;;;3.10;1.90;;;14.40;99.90;;;-141.84;77.52;19126.97;5094226;28;20210;-67
2022/09/09 03:05:38;;;;;;;2.17;1.88;;;14.40;99.90;;;-141.84;77.71;19143.22;5094181;28;20281;-67
2022/09/09 03:08:06;;;;;;;1.83;1.73;;;14.40;99.90;;;-141.84;77.90;19055.84;5094005;28;20224;-69
2022/09/09 03:10:36;;;;;;;2.25;2.05;;;14.40;99.90;;;-141.84;77.82;19102.56;5094011;28;20277;-68
2022/09/09 03:13:05;;;;;;;1.85;1.73;;;14.40;99.90;;;-141.84;78.32;19055.84;5093617;28;20703;-68
2022/09/09 03:15:34;;;;;;;2.25;2.05;;;14.30;99.90;;;-141.84;78.64;19076.16;5095364;28;20249;-67
2022/09/09 03:18:04;;;;;;;2.47;1.63;;;14.30;99.90;;;-141.84;77.37;19098.50;5093606;28;20231;-67
2022/09/09 03:20:32;;;;;;;3.30;2.10;;;14.30;99.90;;;-141.84;76.98;19080.22;5093772;28;20228;-68
2022/09/09 03:23:02;;;;;;;2.72;1.77;;;14.30;99.90;;;-141.84;78.03;19066.00;5093507;28;20227;-68
2022/09/09 03:25:30;;;;;;;3.40;2.20;;;14.30;99.90;;;-141.84;77.43;19088.34;5093710;28;20223;-68
2022/09/09 03:27:59;;;;;;;2.72;1.92;;;14.30;99.90;;;-141.84;77.50;19147.28;5092499;28;20739;-68
2022/09/09 03:30:28;;;;;;;3.13;2.10;;;14.30;99.90;;;-141.84;77.92;19086.31;5094012;28;20643;-68
2022/09/09 03:32:57;;;;;;;3.53;2.13;;;14.20;99.90;;;-141.84;78.62;19070.06;5093178;28;20227;-67
2022/09/09 03:35:26;;;;;;;3.17;2.05;;;14.20;99.90;;;-141.84;77.85;19066.00;5093414;28;20228;-68
2022/09/09 03:37:55;;;;;;;3.70;1.98;;;14.30;99.90;;;-141.84;77.72;19088.34;5093252;28;20224;-67
2022/09/09 03:40:23;;;;;;;6.10;2.10;;;14.30;99.90;;;-141.84;77.50;19110.72;5093398;28;20224;-67
2022/09/09 03:42:51;;;;;;;2.45;1.90;;;14.30;99.90;;;-141.84;77.39;19072.09;5093140;28;20257;-67
2022/09/09 03:45:19;;;;;;;3.13;2.08;;;14.30;99.90;;;-141.84;78.20;19080.22;5094046;28;20199;-67
2022/09/09 03:47:47;;;;;;;3.42;2.03;;;14.20;99.90;;;-141.84;78.38;19080.22;5093028;28;20220;-68
2022/09/09 03:50:15;;;;;;;2.67;2.03;;;14.20;99.90;;;-141.84;77.99;19053.81;5093105;28;20219;-68
2022/09/09 03:52:45;;;;;;;4.20;1.85;;;14.20;99.90;;;-141.84;77.09;19080.22;5093020;28;20224;-67
2022/09/09 03:55:14;;;;;;;3.95;2.22;;;14.20;99.90;;;-141.84;76.10;19126.97;5093280;28;20231;-67
2022/09/09 03:57:42;;;;;;;4.70;2.00;;;14.30;99.90;;;-141.84;76.64;19106.66;5092623;28;20544;-67
2022/09/09 04:00:11;;;;;;;3.20;2.33;;;14.30;99.90;;;-141.84;75.58;19124.94;5093231;28;20568;-67
2022/09/09 04:02:39;;;;;;;2.20;1.80;;;14.30;99.90;;;-141.84;75.59;19167.59;5092745;28;20235;-68
2022/09/09 04:05:09;;;;;;;2.80;2.20;;;14.40;99.90;;;-141.84;76.95;19068.03;5092810;28;20232;-68
2022/09/09 04:07:37;;;;;;;2.38;2.13;;;14.30;99.90;;;-141.84;78.25;19082.25;5092842;28;20231;-67
2022/09/09 04:10:09;;;;;;;4.07;2.20;;;14.20;99.90;;;-141.84;78.62;19019.28;5092758;28;20754;-67
2022/09/09 04:12:37;;;;;;;3.33;2.13;;;14.20;99.90;;;-141.84;78.44;19037.56;5092934;28;20211;-67
2022/09/09 04:15:07;;;;;;;2.88;2.15;;;14.20;99.90;;;-141.84;76.23;19112.75;5093004;28;20686;-67
2022/09/09 04:17:36;;;;;;;4.30;2.00;;;14.30;99.90;;;-141.84;76.85;19143.22;5092393;28;20232;-67
2022/09/09 04:20:04;;;;;;;2.47;2.00;;;14.30;99.90;;;-141.84;76.63;19124.94;5092918;28;20232;-67
2022/09/09 04:22:33;;;;;;;2.92;2.03;;;14.30;99.90;;;-141.84;76.58;19108.69;5092698;28;20235;-67
2022/09/09 04:25:01;;;;;;;3.03;2.25;;;14.30;99.90;;;-141.84;77.04;19092.41;5092635;28;20219;-68
2022/09/09 04:27:31;;;;;;;3.42;1.98;;;14.30;99.90;;;-141.84;77.60;19086.31;5092903;28;20199;-68
2022/09/09 04:29:59;;;;;;;3.00;2.20;;;14.40;99.90;;;-141.84;77.83;19098.50;5092208;28;20718;-68
2022/09/09 04:32:27;;;;;;;6.35;3.05;;;14.40;99.90;;;-141.84;76.40;19139.16;5092501;28;20230;-67
2022/09/09 04:34:55;;;;;;;4.60;2.30;;;14.50;99.90;;;-141.84;75.52;19163.53;5092075;28;20227;-68
2022/09/09 04:37:24;;;;;;;4.93;2.00;;;14.50;99.90;;;-141.84;76.00;19171.66;5092195;28;20219;-67
2022/09/09 04:39:52;;;;;;;4.32;1.92;;;14.70;99.90;;;-141.84;75.78;19159.47;5091992;28;20204;-67
2022/09/09 04:42:20;;;;;;;4.15;2.08;;;14.70;99.90;;;-141.84;75.68;19159.47;5092574;28;20236;-66
2022/09/09 04:44:50;;;;;;;4.20;2.00;;;14.80;99.90;;;-141.84;73.53;19218.41;5091998;28;20224;-66
2022/09/09 04:47:18;;;;;;;3.75;2.15;;;14.80;99.90;;;-141.84;72.67;19250.91;5091906;28;20224;-66
2022/09/09 04:49:46;;;;;;;4.80;1.88;;;14.90;99.90;;;-141.84;72.01;19267.16;5091877;28;20219;-68
2022/09/09 04:52:18;;;;;;;3.00;2.03;;;15.00;99.90;;;-141.84;72.91;19267.16;5092104;28;20231;-67
2022/09/09 04:54:46;;;;;;;4.97;1.80;;;15.10;99.90;;;-141.84;73.49;19236.69;5092092;28;20563;-66
2022/09/09 04:57:14;;;;;;;3.85;2.03;;;15.00;99.90;;;-141.84;74.51;19183.84;5092000;28;20196;-66
2022/09/09 04:59:45;;;;;;;4.28;1.98;;;14.90;99.90;;;-141.84;73.68;19240.75;5091715;28;20249;-67
2022/09/09 05:02:15;;;;;;;4.72;2.47;;;15.00;99.90;;;-141.84;73.64;19263.09;5091405;28;20224;-68
2022/09/09 05:04:43;;;;;;;4.43;2.20;;;14.90;99.90;;;-141.84;74.38;19232.63;5091794;28;20224;-67
2022/09/09 05:07:11;;;;;;;5.43;1.70;;;14.90;99.90;;;-141.84;74.12;19210.28;5091853;28;20245;-67
2022/09/09 05:09:39;;;;;;;3.08;2.60;;;14.90;99.90;;;-141.84;74.23;19228.56;5091169;28;20208;-67
2022/09/09 05:12:08;;;;;;;2.20;1.60;;;14.90;99.90;;;-141.84;74.29;19236.69;5092181;28;20196;-68
2022/09/09 05:14:37;;;;;;;4.00;1.80;;;15.00;99.90;;;-141.84;74.26;19228.56;5091456;28;20609;-66
2022/09/09 05:17:05;;;;;;;2.58;1.75;;;15.00;99.90;;;-141.84;74.16;19250.91;5091542;28;20239;-68
2022/09/09 05:19:35;;;;;;;4.22;2.10;;;15.10;99.90;;;-141.84;72.70;19291.56;5091482;28;20235;-68
2022/09/09 05:22:04;;;;;;;3.85;2.10;;;15.20;99.90;;;-141.84;72.13;19328.13;5091646;28;20232;-67
2022/09/09 05:24:33;;;;;;;3.28;1.70;;;15.30;99.90;;;-141.84;72.67;19309.84;5091603;28;20212;-68
2022/09/09 05:27:02;;;;;;;2.42;1.90;;;15.30;99.90;;;-141.84;72.67;19309.84;5091195;28;20224;-66
2022/09/09 05:29:31;;;;;;;3.10;2.17;;;15.40;99.90;;;-141.84;72.71;19313.91;5091267;28;20227;-67
2022/09/09 05:32:00;;;;;;;4.82;2.40;;;15.40;99.90;;;-141.84;71.48;19366.75;5091301;28;20223;-67
2022/09/09 05:34:28;;;;;;;3.55;1.70;;;15.50;99.90;;;-141.84;72.09;19376.91;5091448;28;20235;-65
2022/09/09 05:36:58;;;;;;;3.83;1.90;;;15.50;99.90;;;-141.84;71.42;19354.56;5091611;28;20207;-67
2022/09/09 05:39:26;;;;;;;4.40;1.90;;;15.60;99.90;;;-141.84;71.60;19383.00;5092142;28;20208;-67
2022/09/09 05:41:55;;;;;;;4.97;1.90;;;15.60;99.90;;;-141.84;71.62;19409.41;5090995;28;20220;-67
2022/09/09 05:44:27;;;;;;;3.47;1.67;;;15.70;99.90;;;-141.84;71.29;19427.72;5091045;28;20228;-66
2022/09/09 05:46:55;;;;;;;4.65;1.50;;;15.70;99.90;;;-141.84;70.41;19446.00;5091039;28;20271;-67
2022/09/09 05:49:23;;;;;;;2.60;1.70;;;15.70;99.90;;;-141.84;70.94;19456.16;5091206;28;20608;-67
2022/09/09 05:51:52;;;;;;;3.20;1.67;;;15.80;99.90;;;-141.84;70.79;19450.06;5090766;28;20200;-67
2022/09/09 05:54:22;;;;;;;4.35;2.00;;;15.90;99.90;;;-141.84;69.55;19498.84;5091913;28;20208;-66
2022/09/09 05:56:51;;;;;;;4.28;1.75;;;16.00;99.90;;;-141.84;70.17;19484.59;5090716;28;20650;-66
2022/09/09 05:59:19;;;;;;;2.80;1.80;;;16.00;99.90;;;-141.84;70.07;19484.59;5091043;28;20242;-66
2022/09/09 06:01:47;;;;;;;1.73;1.50;;;16.10;99.90;;;-141.84;70.17;19502.91;5090854;28;20255;-66
2022/09/09 06:04:15;;;;;;;3.35;1.70;;;16.20;99.90;;;-141.84;69.49;19578.09;5090922;28;20247;-66
2022/09/09 06:06:43;;;;;;;3.92;1.83;;;16.30;99.90;;;-141.84;68.41;19641.09;5070898;28;20200;-67
2022/09/09 06:09:12;;;;;;;3.00;1.92;;;16.40;99.90;;;-141.84;66.38;19734.56;5080000;28;20227;-67
2022/09/09 06:11:41;;;;;;;2.22;1.70;;;16.40;99.90;;;-141.84;66.35;19728.47;5090961;28;20238;-66
2022/09/09 06:14:10;;;;;;;3.10;1.60;;;16.60;99.90;;;-141.84;66.49;19728.47;5090844;28;20702;-66
2022/09/09 06:16:38;;;;;;;3.38;2.50;;;16.60;99.90;;;-141.84;66.94;19736.59;5090887;28;20231;-67
2022/09/09 06:19:06;;;;;;;2.47;1.77;;;16.70;99.90;;;-141.84;67.15;19746.78;5091060;28;20277;-66
2022/09/09 06:21:37;;;;;;;2.25;1.50;;;16.70;99.90;;;-141.84;64.54;19903.25;5091611;28;20208;-67
2022/09/09 06:24:07;;;;;;;3.95;1.50;;;16.90;99.90;;;-141.84;65.48;19848.38;5091025;28;20228;-68
2022/09/09 06:26:40;;;;;;;3.17;1.80;;;16.90;99.90;;;-141.84;65.65;19868.72;5090873;28;20236;-68
2022/09/09 06:29:11;;;;;;;3.25;1.83;;;16.90;99.90;;;-141.84;66.07;19807.75;5090725;28;20695;-66
2022/09/09 06:31:39;;;;;;;3.05;1.70;;;17.00;99.90;;;-141.84;65.37;19897.16;5090629;28;20718;-67
2022/09/09 06:34:09;;;;;;;1.70;1.60;;;17.00;99.90;;;-141.84;65.50;19889.03;5090747;28;20231;-67
2022/09/09 06:36:39;;;;;;;1.65;1.55;;;17.10;99.90;;;-141.84;65.65;19907.31;5091723;28;20208;-68
2022/09/09 06:39:10;;;;;;;1.80;1.30;;;17.20;99.90;;;-141.84;65.29;19884.97;5091015;28;20223;-67
2022/09/09 06:41:43;;;;;;;2.20;1.52;;;17.30;99.90;;;-141.84;63.40;20029.28;5090242;28;20223;-68
2022/09/09 06:44:12;;;;;;;2.10;1.27;;;17.30;99.90;;;-141.84;63.61;20027.25;5090519;28;20718;-67
2022/09/09 06:46:40;;;;;;;2.42;1.45;;;17.40;99.90;;;-141.84;64.36;20019.13;5090458;28;20224;-68
2022/09/09 06:49:09;;;;;;;1.60;1.30;;;17.40;99.90;;;-141.84;64.25;20000.81;5090550;28;20247;-66
2022/09/09 06:51:42;;;;;;;5.45;1.67;;;17.50;99.90;;;-141.84;64.81;19980.50;5091008;28;20200;-68
2022/09/09 06:54:13;;;;;;;2.58;1.30;;;17.50;99.90;;;-141.84;64.20;20045.53;5091026;28;20200;-66
2022/09/09 06:56:43;;;;;;;2.13;1.60;;;17.50;99.90;;;-141.84;64.13;20047.56;5090400;28;20574;-67
2022/09/09 06:59:13;;;;;;;1.25;1.10;;;17.60;99.90;;;-141.84;64.26;20043.50;5090530;28;20254;-67
2022/09/09 07:01:44;;;;;;;1.95;1.33;;;17.70;99.90;;;-141.84;63.89;20076.03;5090109;28;20227;-66
2022/09/09 07:04:13;;;;;;;3.03;1.50;;;17.80;99.90;;;-141.84;64.35;20084.16;5092181;28;20652;-66
2022/09/09 07:06:45;;;;;;;3.13;1.80;;;17.90;99.90;;;-141.84;63.53;20134.97;5094136;28;20262;-67
2022/09/09 07:09:16;;;;;;;3.65;1.70;;;18.10;99.90;;;-141.84;61.21;20277.25;5094471;28;20206;-67
2022/09/09 07:11:46;;;;;;;1.98;1.30;;;18.20;99.90;;;-141.84;61.88;20277.25;5094005;28;20227;-67
2022/09/09 07:14:16;;;;;;;2.20;1.58;;;18.40;99.90;;;-141.84;62.12;20267.09;5093966;28;20227;-67
2022/09/09 07:16:46;;;;;;;2.88;1.60;;;18.50;99.90;;;-141.84;61.40;20360.59;5093772;28;20717;-67
2022/09/09 07:19:15;;;;;;;4.25;1.65;;;18.60;99.90;;;-141.84;60.67;20382.94;5093998;28;20219;-68
2022/09/09 07:21:44;;;;;;;2.80;1.30;;;18.60;99.90;;;-141.84;59.97;20484.56;5093855;28;20203;-67
2022/09/09 07:24:12;;;;;;;3.03;1.48;;;18.80;99.90;;;-141.84;58.99;20502.88;5094042;28;20224;-68
2022/09/09 07:26:41;;;;;;;3.45;1.20;;;19.00;99.90;;;-141.84;57.77;20557.75;5093587;28;20234;-67
2022/09/09 07:29:13;;;;;;;2.72;1.40;;;19.10;99.90;;;-141.84;58.23;20637.03;5093695;28;20228;-67
2022/09/09 07:31:49;;;;;;;3.35;1.48;;;19.20;99.90;;;-141.84;58.73;20586.22;5093605;28;20223;-68
2022/09/09 07:34:17;;;;;;;1.67;1.40;;;19.30;99.90;;;-141.84;58.17;20665.50;5093450;28;20227;-67
2022/09/09 07:36:46;;;;;;;1.95;1.50;;;19.30;99.90;;;-141.84;58.31;20675.66;5093546;28;20203;-67
2022/09/09 07:39:17;;;;;;;1.50;1.35;;;19.20;99.90;;;-141.84;58.23;20600.44;5093852;28;20204;-67
2022/09/09 07:41:47;;;;;;;2.90;1.40;;;19.10;99.90;;;-141.84;58.51;20582.16;5093263;28;20226;-67
2022/09/09 07:44:21;;;;;;;1.88;1.27;;;19.10;99.90;;;-141.84;58.41;20614.66;5093615;28;20272;-66
2022/09/09 07:46:50;;;;;;;2.33;1.30;;;19.10;99.90;;;-141.84;58.89;20584.19;5092977;28;20242;-67
2022/09/09 07:49:18;;;;;;;2.78;1.40;;;19.00;99.90;;;-141.84;59.24;20537.44;5091643;28;20288;-68
2022/09/09 07:51:55;;;;;;;4.45;1.33;;;19.00;99.90;;;-141.84;58.28;20608.56;5092911;28;20241;-65
2022/09/09 07:54:23;;;;;;;6.10;1.50;;;18.90;99.90;;;-141.84;58.66;20563.84;5093552;28;20555;-69
2022/09/09 07:56:52;;;;;;;2.85;1.30;;;18.90;99.90;;;-141.84;58.67;20647.19;5092155;28;20224;-68
2022/09/09 07:59:20;;;;;;;2.33;1.40;;;19.00;99.90;;;-141.84;58.04;20675.66;5092761;28;20262;-64
2022/09/09 08:01:53;;;;;;;4.25;1.58;;;19.10;99.90;;;-141.84;58.24;20663.47;5092839;28;20224;-65
2022/09/09 08:04:24;;;;;;;2.08;1.40;;;19.20;99.90;;;-141.84;58.61;20679.72;5092792;28;20259;-64
2022/09/09 08:06:56;;;;;;;3.00;1.73;;;19.20;99.90;;;-141.84;58.68;20665.50;5092919;28;20317;-65
2022/09/09 08:09:28;;;;;;;1.80;1.30;;;19.30;99.90;;;-141.84;57.97;20714.28;5093360;28;20204;-69
2022/09/09 08:11:58;;;;;;;2.00;1.15;;;19.40;99.90;;;-141.84;57.29;20822.03;5092492;28;20228;-67
2022/09/09 08:14:26;;;;;;;2.40;1.27;;;19.60;99.90;;;-141.84;57.03;20830.16;5092233;28;20220;-67
2022/09/09 08:16:57;;;;;;;3.75;1.95;;;19.80;99.90;;;-141.84;56.15;20901.31;5092566;28;20228;-62
2022/09/09 08:19:25;;;;;;;1.83;1.15;;;20.00;99.90;;;-141.84;55.35;20992.78;5091876;28;20216;-68
2022/09/09 08:21:53;;;;;;;3.38;1.33;;;20.20;99.90;;;-141.84;54.30;21021.25;5092562;28;20203;-65
2022/09/09 08:24:22;;;;;;;3.22;1.15;;;20.40;99.90;;;-141.84;55.51;20956.19;5092394;28;20718;-69
2022/09/09 08:26:51;;;;;;;1.90;1.30;;;20.30;99.90;;;-141.84;54.97;21035.47;5092140;28;20235;-65
2022/09/09 08:29:19;;;;;;;3.97;1.20;;;20.40;99.90;;;-141.84;55.31;20978.56;5091984;28;20228;-70
2022/09/09 08:31:50;;;;;;;2.55;1.50;;;20.40;99.90;;;-141.84;55.15;21000.91;5092188;28;20226;-67
2022/09/09 08:34:20;;;;;;;3.00;1.30;;;20.40;99.90;;;-141.84;55.22;21045.63;5092137;28;20643;-66
2022/09/09 08:36:50;;;;;;;3.40;1.30;;;20.40;99.90;;;-141.84;55.50;21037.50;5092265;28;20204;-68
2022/09/09 08:39:22;;;;;;;2.75;1.40;;;20.50;99.90;;;-141.84;55.49;21027.34;5092589;28;20289;-64
2022/09/09 08:42:14;;;;;;;1.58;1.00;;;20.60;99.90;;;-141.84;55.85;21041.56;5091859;28;20234;-64
2022/09/09 08:45:03;;;;;;;3.45;1.20;;;20.60;99.90;;;-141.84;54.98;21031.41;5091732;28;20304;-66
2022/09/09 08:47:46;;;;;;;2.92;1.38;;;20.70;99.90;;;-141.84;55.92;20990.75;5091781;28;20227;-67
2022/09/09 08:50:26;;;;;;;2.65;1.30;;;20.60;99.90;;;-141.84;56.11;20980.59;5091536;28;20306;-70
2022/09/09 08:53:05;;;;;;;5.00;1.40;;;20.50;99.90;;;-141.84;56.36;20996.84;5091506;28;20231;-66
2022/09/09 08:55:42;;;;;;;4.68;1.58;;;20.50;99.90;;;-141.84;56.25;21068.00;5071701;28;20434;-67
2022/09/09 08:58:16;;;;;;;4.05;1.45;;;20.70;99.90;;;-141.84;55.94;21037.50;5084529;28;20280;-72
2022/09/09 09:01:13;;;;;;;4.43;1.50;;;20.70;99.90;;;-141.84;55.26;21102.56;5091912;28;20193;-75
2022/09/09 09:03:51;;;;;;;3.30;1.27;;;20.70;99.90;;;-141.84;55.35;21061.91;5091216;28;20208;-69
2022/09/09 09:06:41;;;;;;;2.28;1.27;;;20.70;99.90;;;-141.84;55.30;21057.84;5092340;28;20188;-64
2022/09/09 09:09:22;;;;;;;1.55;1.20;;;20.70;99.90;;;-141.84;55.92;21065.97;5091756;28;20219;-71
2022/09/09 09:11:55;;;;;;;1.95;1.20;;;20.80;99.90;;;-141.84;54.86;21059.88;5091392;28;20219;-68
2022/09/09 09:14:26;;;;;;;2.10;1.23;;;20.80;99.90;;;-141.84;55.15;21098.50;5091125;28;20659;-69
2022/09/09 09:17:03;;;;;;;2.15;1.20;;;20.80;99.90;;;-141.84;54.31;21116.78;5091401;28;20740;-68
2022/09/09 09:19:35;;;;;;;5.85;1.25;;;20.90;99.90;;;-141.84;53.86;21112.72;5091002;28;20271;-67
2022/09/09 09:22:17;;;;;;;2.28;1.20;;;21.00;99.90;;;-141.84;52.31;21159.50;5091561;28;20224;-70
2022/09/09 09:24:54;;;;;;;6.93;1.40;;;21.00;99.90;;;-141.84;52.75;21226.59;5091241;28;20280;-71
2022/09/09 09:27:35;;;;;;;4.13;1.58;;;21.10;99.90;;;-141.84;52.21;21236.75;5091093;28;20195;-70
2022/09/09 09:30:16;;;;;;;2.40;1.20;;;21.10;99.90;;;-141.84;53.06;21196.09;5091459;28;20204;-64
2022/09/09 09:33:02;;;;;;;4.85;1.40;;;21.20;99.90;;;-141.84;51.80;21275.38;5090954;28;20603;-64
2022/09/09 09:35:30;;;;;;;12.40;2.58;;;21.20;99.90;;;-141.84;52.14;21267.25;5091020;28;20284;-65
2022/09/09 09:38:01;;;;;;;7.82;1.88;;;21.40;99.90;;;-141.84;52.19;21301.81;5091073;28;20223;-66
2022/09/09 09:40:56;;;;;;;2.72;1.27;;;21.50;99.90;;;-141.84;51.14;21387.19;5090788;28;20224;-66
2022/09/09 09:43:29;;;;;;;6.07;1.67;;;21.80;99.90;;;-141.84;50.28;21462.44;5090770;28;20219;-66
2022/09/09 09:45:59;;;;;;;5.72;1.25;;;22.00;99.90;;;-141.84;49.45;21497.00;5090848;28;20607;-68
2022/09/09 09:48:46;;;;;;;3.42;1.10;;;22.10;99.90;;;-141.84;50.23;21464.47;5090911;28;20195;-67
2022/09/09 09:51:19;;;;;;;3.95;1.40;;;22.00;99.90;;;-141.84;50.33;21464.47;5091037;28;20219;-68
2022/09/09 09:53:49;;;;;;;6.13;1.55;;;21.90;99.90;;;-141.84;50.27;21484.78;5091216;28;20236;-67
2022/09/09 09:56:17;;;;;;;7.10;1.88;;;22.00;99.90;;;-141.84;49.76;21562.06;5091159;28;20227;-68
2022/09/09 09:58:53;;;;;;;4.80;1.40;;;22.20;99.90;;;-141.84;49.62;21572.22;5090513;28;20224;-66
2022/09/09 10:01:25;;;;;;;4.65;1.10;;;22.40;99.90;;;-141.84;49.91;21635.25;5091033;28;20710;-65
2022/09/09 10:03:55;;;;;;;4.13;1.35;;;22.50;99.90;;;-141.84;50.12;21576.28;5090938;28;20188;-65
2022/09/09 10:06:35;;;;;;;4.55;1.40;;;22.50;99.90;;;-141.84;51.24;21505.13;5091776;28;20180;-67
2022/09/09 10:09:21;;;;;;;5.55;1.58;;;22.20;99.90;;;-141.84;52.40;21456.34;5089142;28;20255;-66
2022/09/09 10:12:00;;;;;;;4.72;1.77;;;22.10;99.90;;;-141.84;51.85;21529.53;5090598;28;20651;-65
2022/09/09 10:14:39;;;;;;;3.28;1.30;;;22.20;99.90;;;-141.84;50.43;21651.53;5090497;28;20246;-63
2022/09/09 10:17:27;;;;;;;12.75;2.50;;;22.60;99.90;;;-141.84;50.24;21771.50;5090691;28;20223;-63
2022/09/09 10:20:22;;;;;;;4.00;1.25;;;23.00;99.90;;;-141.84;47.89;21761.31;5090394;28;20603;-63
2022/09/09 10:22:59;;;;;;;2.83;1.42;;;23.10;99.90;;;-141.84;48.60;21702.34;5086396;28;20220;-63
2022/09/09 10:26:00;;;;;;;3.33;1.10;;;22.90;99.90;;;-141.84;49.70;21675.94;5090264;28;20228;-63
2022/09/09 10:28:54;;;;;;;3.38;1.48;;;22.80;99.90;;;-141.84;50.84;21582.38;5090054;28;20747;-64